National Weather Service Raw Text Product

Displaying AFOS PIL: TAFDSM Received: 2018-04-17 05:35 UTC


996 
FTUS43 KDMX 170535
TAFDSM
TAF
KDSM 170535Z 1706/1806 33005KT P6SM SCT250
     FM171400 05004KT P6SM SCT250
     FM180100 09012KT P6SM SCT140
     FM180400 08014KT P6SM BKN050=